Time;durP1;ratioP1;P1;durP2;ratioP2;P2;SDS_P1;SDS_P2;PMS_P1;PMS_P2;Temp;Humidity;BMP_temperature;BMP_pressure;BME280_temperature;BME280_humidity;BME280_pressure;Samples;Min_cycle;Max_cycle;Signal;HPM_P1;HPM_P2
2024/04/20 00:00:31;;;;;;;11.10;6.20;;;;;;;4.78;100.00;100337.48;105495;1259;66236;-55
2024/04/20 00:02:59;;;;;;;11.60;7.00;;;;;;;4.73;100.00;100343.30;105376;1256;71463;-55
2024/04/20 00:05:26;;;;;;;13.80;7.10;;;;;;;4.70;100.00;100348.03;105367;1262;61635;-57
2024/04/20 00:07:54;;;;;;;13.00;7.80;;;;;;;4.69;100.00;100349.20;105522;1259;61298;-55
2024/04/20 00:10:22;;;;;;;11.00;7.20;;;;;;;4.66;100.00;100340.00;105479;1260;74705;-55
2024/04/20 00:12:50;;;;;;;10.80;7.00;;;;;;;4.64;100.00;100337.67;105421;1262;65720;-54
2024/04/20 00:15:18;;;;;;;9.10;6.50;;;;;;;4.63;100.00;100335.38;105576;1260;72711;-55
2024/04/20 00:17:45;;;;;;;12.30;6.40;;;;;;;4.62;100.00;100336.38;105353;1259;61286;-54
2024/04/20 00:20:13;;;;;;;13.10;8.10;;;;;;;4.60;100.00;100341.49;105523;1257;61410;-54
2024/04/20 00:22:41;;;;;;;12.00;8.10;;;;;;;4.61;100.00;100344.05;105300;1257;73689;-54
2024/04/20 00:25:08;;;;;;;11.30;7.30;;;;;;;4.60;100.00;100351.30;105442;1257;65601;-54
2024/04/20 00:27:36;;;;;;;11.80;6.30;;;;;;;4.58;100.00;100366.00;105416;1257;73193;-55
2024/04/20 00:30:04;;;;;;;9.60;6.50;;;;;;;4.50;100.00;100369.44;105226;1260;61215;-54
2024/04/20 00:32:31;;;;;;;12.40;7.50;;;;;;;4.44;100.00;100367.33;105493;1260;61330;-54
2024/04/20 00:35:00;;;;;;;10.90;6.80;;;;;;;4.38;100.00;100364.34;105541;1257;73336;-54
2024/04/20 00:37:27;;;;;;;12.10;7.00;;;;;;;4.34;100.00;100361.70;105614;1259;65984;-55
2024/04/20 00:39:55;;;;;;;9.80;5.90;;;;;;;4.29;100.00;100359.92;105429;1254;72732;-54
2024/04/20 00:42:23;;;;;;;9.30;5.70;;;;;;;4.27;100.00;100358.55;105411;1254;61262;-55
2024/04/20 00:44:50;;;;;;;11.40;5.80;;;;;;;4.22;100.00;100356.61;105462;1257;61236;-54
2024/04/20 00:47:18;;;;;;;8.70;6.20;;;;;;;4.17;100.00;100359.23;105550;1257;74700;-56
2024/04/20 00:49:45;;;;;;;8.80;5.80;;;;;;;4.15;100.00;100361.10;105303;1258;66937;-54
2024/04/20 00:52:13;;;;;;;9.30;5.30;;;;;;;4.15;100.00;100359.42;105210;1257;72713;-54
2024/04/20 00:54:40;;;;;;;7.90;5.50;;;;;;;4.18;100.00;100356.42;105158;1262;61283;-54
2024/04/20 00:57:09;;;;;;;7.30;5.10;;;;;;;4.19;100.00;100356.35;105441;1257;61345;-56
2024/04/20 00:59:36;;;;;;;8.60;5.40;;;;;;;4.22;100.00;100361.39;105064;1262;74674;-54
2024/04/20 01:02:04;;;;;;;10.50;5.90;;;;;;;4.23;100.00;100362.46;105410;1260;65674;-54
2024/04/20 01:04:31;;;;;;;9.40;6.20;;;;;;;4.23;100.00;100361.48;105355;1260;71858;-54
2024/04/20 01:06:59;;;;;;;7.30;5.30;;;;;;;4.25;100.00;100360.09;105582;1257;61317;-55
2024/04/20 01:09:27;;;;;;;8.40;5.80;;;;;;;4.26;100.00;100364.00;105107;1257;61507;-54
2024/04/20 01:11:55;;;;;;;11.10;5.70;;;;;;;4.25;100.00;100369.38;105221;1260;74600;-55
2024/04/20 01:14:23;;;;;;;11.30;5.90;;;;;;;4.25;100.00;100371.80;105710;1257;67105;-55
2024/04/20 01:16:51;;;;;;;10.20;5.90;;;;;;;4.24;100.00;100376.13;106474;1257;71434;-56
2024/04/20 01:19:22;;;;;;;9.80;5.30;;;;;;;4.24;100.00;100376.70;105161;1257;61419;-55
2024/04/20 01:21:50;;;;;;;7.80;4.90;;;;;;;4.20;100.00;100377.94;105368;1260;61255;-55
2024/04/20 01:24:18;;;;;;;8.30;5.20;;;;;;;4.18;100.00;100383.77;105543;1256;73458;-55
2024/04/20 01:26:46;;;;;;;12.60;7.30;;;;;;;4.11;100.00;100380.37;105451;1261;65543;-54
2024/04/20 01:29:13;;;;;;;11.80;5.30;;;;;;;4.07;100.00;100380.75;105645;1255;71463;-55
2024/04/20 01:31:41;;;;;;;7.30;4.50;;;;;;;4.07;100.00;100383.88;105105;1262;61342;-54
2024/04/20 01:34:08;;;;;;;8.10;4.90;;;;;;;4.09;100.00;100391.23;105429;1255;61360;-54
2024/04/20 01:36:36;;;;;;;7.50;4.90;;;;;;;4.09;100.00;100399.89;105362;1256;73415;-55
2024/04/20 01:39:03;;;;;;;8.10;5.10;;;;;;;4.07;100.00;100398.36;105447;1257;67257;-54
2024/04/20 01:41:31;;;;;;;9.10;5.10;;;;;;;4.07;100.00;100395.39;105182;1260;72704;-55
2024/04/20 01:43:59;;;;;;;7.10;4.20;;;;;;;4.07;100.00;100395.42;105410;1261;61269;-54
2024/04/20 01:46:26;;;;;;;5.30;3.20;;;;;;;4.05;100.00;100407.45;105442;1260;61254;-54
2024/04/20 01:48:54;;;;;;;5.60;3.50;;;;;;;4.03;100.00;100408.52;105468;1255;74692;-54
2024/04/20 01:51:21;;;;;;;4.60;3.10;;;;;;;4.03;100.00;100406.90;105505;1254;66956;-54
2024/04/20 01:53:49;;;;;;;7.20;2.80;;;;;;;4.04;100.00;100411.14;105530;1257;72741;-55
2024/04/20 01:56:16;;;;;;;4.10;2.40;;;;;;;4.05;100.00;100408.13;105455;1254;61340;-54
2024/04/20 01:58:44;;;;;;;5.70;2.20;;;;;;;4.05;100.00;100407.29;105454;1259;61614;-54
2024/04/20 02:01:12;;;;;;;3.40;2.00;;;;;;;4.07;100.00;100405.41;105363;1259;74672;-54
2024/04/20 02:03:40;;;;;;;4.90;2.20;;;;;;;4.10;100.00;100408.08;105521;1259;67029;-54
2024/04/20 02:06:08;;;;;;;3.80;2.00;;;;;;;4.13;100.00;100407.73;105484;1259;72683;-54
2024/04/20 02:08:36;;;;;;;4.50;2.00;;;;;;;4.18;100.00;100405.75;105483;1258;61397;-55
2024/04/20 02:11:03;;;;;;;3.20;2.00;;;;;;;4.25;100.00;100407.56;106218;1259;61215;-55
2024/04/20 02:13:31;;;;;;;3.80;2.10;;;;;;;4.30;100.00;100409.87;105822;1259;75276;-55
2024/04/20 02:15:58;;;;;;;3.80;2.40;;;;;;;4.33;100.00;100406.42;105365;1260;67379;-54
2024/04/20 02:18:26;;;;;;;9.20;3.50;;;;;;;4.38;100.00;100411.84;105289;1254;72715;-56
2024/04/20 02:20:54;;;;;;;4.60;3.40;;;;;;;4.41;100.00;100416.45;105613;1254;61218;-56
2024/04/20 02:23:22;;;;;;;7.40;3.90;;;;;;;4.39;100.00;100417.97;105983;1259;61240;-54
2024/04/20 02:25:50;;;;;;;5.50;3.90;;;;;;;4.36;100.00;100419.48;105508;1259;76057;-55
2024/04/20 02:28:17;;;;;;;5.20;3.20;;;;;;;4.31;100.00;100418.56;105628;1254;65870;-54
2024/04/20 02:30:45;;;;;;;6.00;4.00;;;;;;;4.25;100.00;100422.55;105536;1258;71740;-54
2024/04/20 02:33:13;;;;;;;8.60;5.00;;;;;;;4.19;100.00;100430.30;105398;1260;61365;-54
2024/04/20 02:35:40;;;;;;;7.90;5.20;;;;;;;4.14;100.00;100428.48;105551;1255;61248;-55
2024/04/20 02:38:08;;;;;;;7.80;5.60;;;;;;;4.11;100.00;100428.70;105520;1259;73434;-55
2024/04/20 02:40:37;;;;;;;6.70;4.90;;;;;;;4.09;100.00;100438.42;105555;1260;65695;-54
2024/04/20 02:43:05;;;;;;;10.40;6.80;;;;;;;4.05;100.00;100443.56;105583;1258;70961;-56
2024/04/20 02:45:33;;;;;;;9.70;6.40;;;;;;;4.06;100.00;100445.17;105407;1254;61711;-54
2024/04/20 02:48:01;;;;;;;11.70;6.80;;;;;;;4.12;100.00;100447.21;105480;1260;61186;-54
2024/04/20 02:50:29;;;;;;;10.80;6.60;;;;;;;4.14;100.00;100441.52;105652;1259;75034;-55
2024/04/20 02:52:56;;;;;;;11.30;7.00;;;;;;;4.24;100.00;100444.10;105203;1260;65953;-55
2024/04/20 02:55:24;;;;;;;13.30;7.30;;;;;;;4.40;100.00;100443.91;105530;1255;72733;-54
2024/04/20 02:57:52;;;;;;;10.10;6.00;;;;;;;4.54;100.00;100448.45;105636;1259;61234;-56
2024/04/20 03:00:19;;;;;;;10.20;6.70;;;;;;;4.61;100.00;100449.49;105446;1255;61228;-55
2024/04/20 03:02:47;;;;;;;13.20;7.10;;;;;;;4.67;100.00;100444.92;105170;1254;74731;-54
2024/04/20 03:05:16;;;;;;;10.50;7.60;;;;;;;4.70;100.00;100445.42;105589;1254;67055;-54
2024/04/20 03:07:43;;;;;;;11.10;6.50;;;;;;;4.76;100.00;100440.27;105598;1260;73835;-54
2024/04/20 03:10:11;;;;;;;14.60;7.00;;;;;;;4.85;100.00;100434.93;105575;1260;61253;-55
2024/04/20 03:12:39;;;;;;;9.90;5.90;;;;;;;4.93;100.00;100439.39;105546;1259;61363;-55
2024/04/20 03:15:07;;;;;;;11.30;6.90;;;;;;;4.99;100.00;100446.44;107155;1259;74766;-55
2024/04/20 03:17:34;;;;;;;12.60;6.80;;;;;;;5.07;100.00;100445.52;105645;1260;66005;-56
2024/04/20 03:20:03;;;;;;;10.70;7.10;;;;;;;5.20;100.00;100450.01;107132;1257;72734;-55
2024/04/20 03:22:30;;;;;;;11.50;6.70;;;;;;;5.34;100.00;100457.77;105517;1259;61339;-55
2024/04/20 03:24:58;;;;;;;8.90;5.20;;;;;;;5.44;100.00;100461.11;105426;1259;61353;-55
2024/04/20 03:27:26;;;;;;;8.40;6.00;;;;;;;5.58;100.00;100462.56;105357;1259;73809;-57
2024/04/20 03:29:53;;;;;;;6.90;4.60;;;;;;;6.03;100.00;100465.49;105491;1261;66936;-55
2024/04/20 03:32:21;;;;;;;7.90;4.30;;;;;;;6.88;100.00;100467.20;105431;1260;73250;-56
2024/04/20 03:34:48;;;;;;;7.50;4.90;;;;;;;7.88;100.00;100460.72;105403;1255;61275;-56
2024/04/20 03:37:19;;;;;;;7.10;3.80;;;;;;;8.87;100.00;100456.23;105585;1260;61317;-55
2024/04/20 03:39:47;;;;;;;5.60;4.00;;;;;;;9.85;100.00;100449.22;105405;1260;74387;-56
2024/04/20 03:42:14;;;;;;;5.80;3.60;;;;;;;10.82;100.00;100440.30;105436;1260;66995;-56
2024/04/20 03:44:43;;;;;;;5.80;3.40;;;;;;;11.78;100.00;100424.33;105367;1263;71935;-54
2024/04/20 03:47:10;;;;;;;7.00;3.70;;;;;;;12.53;100.00;100407.11;105407;1260;61214;-55
2024/04/20 03:49:38;;;;;;;6.70;3.50;;;;;;;13.11;100.00;100379.89;105421;1260;61322;-55
2024/04/20 03:52:06;;;;;;;5.90;3.40;;;;;;;13.66;100.00;100364.27;105447;1255;74195;-55
2024/04/20 03:54:34;;;;;;;7.40;3.80;;;;;;;14.12;100.00;100349.20;105473;1259;66117;-55
2024/04/20 03:57:01;;;;;;;6.00;3.60;;;;;;;14.52;100.00;100338.67;105376;1260;72716;-55
2024/04/20 03:59:29;;;;;;;10.00;4.10;;;;;;;14.93;100.00;100337.11;105567;1255;62039;-56
2024/04/20 04:01:56;;;;;;;4.40;3.00;;;;;;;15.48;100.00;100333.88;105542;1260;61158;-55
2024/04/20 04:04:24;;;;;;;6.70;3.80;;;;;;;15.98;100.00;100331.34;105555;1260;74670;-55
2024/04/20 04:06:52;;;;;;;5.90;3.40;;;;;;;16.59;100.00;100328.62;105629;1254;67059;-55
2024/04/20 04:09:20;;;;;;;6.80;3.10;;;;;;;17.21;100.00;100329.41;105607;1259;72695;-56
2024/04/20 04:11:47;;;;;;;5.90;3.50;;;;;;;17.80;100.00;100332.73;105178;1260;61175;-55
2024/04/20 04:14:15;;;;;;;6.20;3.50;;;;;;;18.25;92.38;100334.45;105562;1257;62706;-56
2024/04/20 04:16:42;;;;;;;7.40;3.30;;;;;;;18.54;81.03;100337.84;105591;1260;74687;-56
2024/04/20 04:19:10;;;;;;;5.30;3.20;;;;;;;18.82;72.90;100338.80;105620;1255;67672;-56
2024/04/20 04:21:38;;;;;;;6.10;3.30;;;;;;;19.03;65.92;100339.29;105473;1260;73277;-56
2024/04/20 04:24:06;;;;;;;6.50;3.70;;;;;;;19.16;60.20;100330.80;105552;1255;61240;-55
2024/04/20 04:26:33;;;;;;;6.90;3.50;;;;;;;19.22;57.92;100333.50;105504;1260;60374;-56
2024/04/20 04:29:01;;;;;;;7.30;3.70;;;;;;;19.53;58.42;100328.31;105749;1257;74655;-56
2024/04/20 04:31:29;;;;;;;7.50;3.00;;;;;;;19.94;55.61;100328.48;105452;1260;67086;-56
2024/04/20 04:33:56;;;;;;;6.50;2.80;;;;;;;20.35;52.18;100333.89;105340;1260;72695;-57
2024/04/20 04:36:24;;;;;;;7.80;3.70;;;;;;;20.56;48.63;100338.63;105471;1260;61298;-57
2024/04/20 04:38:52;;;;;;;4.80;3.10;;;;;;;20.63;47.00;100336.96;105387;1260;61262;-56
2024/04/20 04:41:19;;;;;;;5.60;2.90;;;;;;;20.57;45.96;100341.48;105501;1260;74695;-56
2024/04/20 04:43:47;;;;;;;6.10;3.00;;;;;;;20.54;45.48;100337.40;105429;1260;65675;-55
2024/04/20 04:46:14;;;;;;;6.00;3.10;;;;;;;20.43;45.66;100337.69;105372;1257;72689;-55
2024/04/20 04:48:42;;;;;;;4.50;3.10;;;;;;;20.40;45.89;100335.81;105449;1258;61359;-55
2024/04/20 04:51:10;;;;;;;11.60;3.30;;;;;;;20.41;46.60;100341.70;105512;1260;61883;-58
2024/04/20 04:53:37;;;;;;;7.10;3.30;;;;;;;20.48;46.38;100340.69;105378;1269;74672;-56
2024/04/20 04:56:05;;;;;;;7.10;3.20;;;;;;;20.66;47.29;100339.06;105381;1259;65562;-55
2024/04/20 04:58:33;;;;;;;7.90;3.50;;;;;;;21.14;47.00;100330.60;105433;1263;72691;-56
2024/04/20 05:01:00;;;;;;;6.70;3.20;;;;;;;21.64;45.83;100328.49;105477;1261;61288;-56
2024/04/20 05:03:28;;;;;;;9.00;3.40;;;;;;;21.99;43.33;100329.42;105401;1260;61367;-56
2024/04/20 05:05:56;;;;;;;5.80;3.10;;;;;;;22.18;42.25;100331.20;105373;1260;74797;-56
2024/04/20 05:08:26;;;;;;;5.50;3.20;;;;;;;22.40;42.31;100332.90;105549;1260;65655;-56
2024/04/20 05:10:54;;;;;;;6.00;3.40;;;;;;;22.85;41.44;100332.89;105554;1258;71487;-56
2024/04/20 05:13:22;;;;;;;5.40;3.20;;;;;;;23.07;39.52;100329.30;105603;1263;61304;-57
2024/04/20 05:15:49;;;;;;;7.70;3.80;;;;;;;23.07;39.27;100332.91;105549;1255;61288;-57
2024/04/20 05:18:17;;;;;;;10.30;3.90;;;;;;;23.25;38.51;100337.66;105601;1259;74823;-57
2024/04/20 05:20:45;;;;;;;6.00;3.20;;;;;;;23.23;37.50;100330.42;105894;1261;67141;-56
2024/04/20 05:23:13;;;;;;;6.60;3.40;;;;;;;23.23;37.83;100334.14;105785;1258;71318;-57
2024/04/20 05:25:42;;;;;;;6.60;3.70;;;;;;;23.40;36.43;100334.91;105410;1259;61346;-56
2024/04/20 05:28:09;;;;;;;6.90;3.90;;;;;;;23.44;36.88;100339.95;105629;1257;61149;-57
2024/04/20 05:30:37;;;;;;;7.10;3.70;;;;;;;23.59;35.71;100338.04;105472;1258;75121;-56
2024/04/20 05:33:05;;;;;;;6.10;3.70;;;;;;;23.53;35.34;100337.55;105465;1260;67076;-56
2024/04/20 05:35:35;;;;;;;8.70;4.40;;;;;;;23.46;35.10;100338.04;105436;1258;72717;-55
2024/04/20 05:38:02;;;;;;;6.70;4.10;;;;;;;23.36;35.50;100338.46;105501;1255;61385;-55
2024/04/20 05:40:30;;;;;;;10.10;5.00;;;;;;;23.43;35.40;100337.29;105334;1260;61168;-55
2024/04/20 05:42:57;;;;;;;10.40;4.80;;;;;;;23.35;35.16;100337.29;105544;1259;74727;-55
2024/04/20 05:45:26;;;;;;;8.90;5.90;;;;;;;23.20;35.21;100336.44;105577;1260;66223;-56
2024/04/20 05:47:53;;;;;;;8.20;5.00;;;;;;;23.07;35.86;100337.70;105349;1261;71172;-56
2024/04/20 05:50:23;;;;;;;10.00;4.60;;;;;;;23.15;36.45;100335.89;105350;1260;61250;-57
2024/04/20 05:52:50;;;;;;;7.30;4.90;;;;;;;23.30;35.76;100334.95;105316;1260;61322;-56
2024/04/20 05:55:18;;;;;;;9.80;4.70;;;;;;;23.29;35.71;100334.10;105436;1260;74669;-57
2024/04/20 05:57:46;;;;;;;8.50;4.60;;;;;;;23.28;35.29;100334.67;105330;1261;65707;-55
2024/04/20 06:00:13;;;;;;;8.70;4.90;;;;;;;23.01;35.05;100335.60;105346;1259;71786;-62
2024/04/20 06:02:41;;;;;;;7.90;4.30;;;;;;;22.71;36.08;100338.86;105640;1260;61154;-61
2024/04/20 06:05:09;;;;;;;9.40;4.50;;;;;;;22.64;36.67;100340.37;105517;1257;61628;-56
2024/04/20 06:07:38;;;;;;;7.70;4.70;;;;;;;22.76;36.88;100340.40;105473;1258;73486;-56
2024/04/20 06:10:06;;;;;;;7.60;4.60;;;;;;;23.08;36.56;100334.66;105451;1260;66793;-56
2024/04/20 06:12:34;;;;;;;10.30;5.10;;;;;;;23.39;35.73;100332.13;105320;1260;71486;-58
2024/04/20 06:15:02;;;;;;;12.60;5.40;;;;;;;23.33;35.12;100338.30;105658;1259;61218;-57
2024/04/20 06:17:30;;;;;;;8.40;4.50;;;;;;;23.10;35.29;100341.63;105505;1258;61304;-55
2024/04/20 06:19:58;;;;;;;5.70;4.20;;;;;;;22.98;35.84;100342.41;105352;1259;73457;-55
2024/04/20 06:22:25;;;;;;;9.20;4.10;;;;;;;23.07;35.91;100338.21;105889;1256;67221;-55
2024/04/20 06:24:53;;;;;;;5.00;3.90;;;;;;;23.42;35.52;100336.66;105521;1258;71845;-56
2024/04/20 06:27:22;;;;;;;7.80;3.60;;;;;;;23.52;34.80;100331.02;105592;1257;61355;-56
2024/04/20 06:29:49;;;;;;;7.20;4.50;;;;;;;23.41;34.82;100334.73;105627;1254;61154;-56
2024/04/20 06:32:17;;;;;;;6.40;4.10;;;;;;;23.29;35.75;100331.17;105237;1254;73431;-56
2024/04/20 06:40:48;;;;;;;8.10;4.20;;;;;;;24.18;34.81;100332.09;102602;1288;600227;-57
2024/04/20 06:43:16;;;;;;;8.20;3.80;;;;;;;24.34;34.09;100332.45;104855;1270;59697;-56
2024/04/20 06:45:43;;;;;;;6.90;3.90;;;;;;;24.37;34.38;100329.96;104907;1270;59547;-56
2024/04/20 06:48:11;;;;;;;6.00;3.70;;;;;;;24.66;33.81;100336.02;104848;1267;73061;-56
2024/04/20 06:50:38;;;;;;;8.90;4.20;;;;;;;24.81;33.25;100330.51;104800;1269;67631;-56
2024/04/20 06:53:06;;;;;;;5.20;3.20;;;;;;;24.80;32.72;100329.39;104850;1271;71451;-56
2024/04/20 06:55:34;;;;;;;5.50;2.90;;;;;;;24.71;33.27;100322.19;104828;1264;226053;-55
2024/04/20 06:58:01;;;;;;;5.90;3.40;;;;;;;24.76;32.69;100318.69;104936;1268;59504;-55
2024/04/20 07:00:29;;;;;;;8.60;3.50;;;;;;;24.75;32.71;100320.41;105305;1262;73100;-58
2024/04/20 07:02:57;;;;;;;6.80;3.60;;;;;;;24.62;32.34;100315.84;105175;1260;66937;-58
2024/04/20 07:05:28;;;;;;;7.60;3.40;;;;;;;24.48;32.79;100308.19;105024;1261;72736;-56
2024/04/20 07:34:14;;;;;;;6.00;2.90;;;;;;;24.19;31.99;100280.98;103012;1286;613627;-55
2024/04/20 07:36:44;;;;;;;6.40;3.20;;;;;;;24.08;31.94;100272.73;104453;1271;159448;-55
2024/04/20 07:39:12;;;;;;;9.10;4.10;;;;;;;24.02;31.88;100273.83;104878;1266;62096;-56
2024/04/20 07:41:40;;;;;;;5.00;2.90;;;;;;;23.99;31.69;100279.95;104652;1267;75632;-56
2024/04/20 07:44:08;;;;;;;5.50;2.70;;;;;;;23.93;31.30;100278.54;104819;1270;68687;-55
2024/04/20 07:46:36;;;;;;;4.00;2.30;;;;;;;23.84;31.62;100276.42;104951;1266;75222;-55
2024/04/20 07:49:04;;;;;;;4.90;2.90;;;;;;;23.82;31.68;100274.95;105038;1270;62480;-54
2024/04/20 07:51:32;;;;;;;4.90;2.40;;;;;;;23.76;31.12;100273.04;104817;1267;62953;-54
2024/04/20 07:53:59;;;;;;;4.10;1.80;;;;;;;23.65;30.97;100266.94;104787;1267;74710;-57
2024/04/20 07:56:27;;;;;;;4.00;1.80;;;;;;;23.55;30.86;100265.55;104547;1270;69190;-58
2024/04/20 07:59:10;;;;;;;2.60;1.30;;;;;;;23.57;30.61;100262.09;104537;1266;75222;-54
2024/04/20 08:01:38;;;;;;;3.80;1.00;;;;;;;23.55;29.85;100261.89;104820;1267;62303;-55
2024/04/20 08:04:14;;;;;;;2.10;0.90;;;;;;;23.41;29.69;100263.81;104639;1270;61709;-54
2024/04/20 08:06:56;;;;;;;1.90;1.00;;;;;;;23.25;28.66;100268.67;104340;1273;77291;-55
2024/04/20 08:09:39;;;;;;;4.50;0.90;;;;;;;22.88;28.68;100283.03;104164;1269;68134;-56
2024/04/20 08:12:08;;;;;;;3.60;0.90;;;;;;;22.53;28.82;100274.40;104497;1270;73825;-56
2024/04/20 08:14:47;;;;;;;1.40;0.70;;;;;;;22.21;29.48;100273.44;104742;1273;63064;-56
2024/04/20 08:17:15;;;;;;;3.40;1.70;;;;;;;22.10;30.02;100270.55;104486;1269;62326;-56
2024/04/20 08:19:42;;;;;;;4.30;1.70;;;;;;;22.14;30.23;100258.58;104456;1269;73839;-54
2024/04/20 08:22:24;;;;;;;1.60;0.80;;;;;;;22.32;30.59;100242.30;104354;1273;69789;-55
2024/04/20 08:24:52;;;;;;;2.30;0.70;;;;;;;22.63;30.77;100241.31;104545;1269;75667;-56
2024/04/20 08:27:20;;;;;;;1.60;0.90;;;;;;;22.87;30.32;100240.95;104535;1274;61996;-56
2024/04/20 08:29:48;;;;;;;2.70;0.70;;;;;;;23.03;29.65;100236.88;104433;1272;62541;-55
2024/04/20 08:32:16;;;;;;;2.10;0.80;;;;;;;22.85;29.91;100232.58;104691;1268;76856;-55
2024/04/20 08:34:44;;;;;;;1.50;1.00;;;;;;;22.84;30.59;100223.29;104492;1274;69877;-56
2024/04/20 08:37:11;;;;;;;1.00;0.70;;;;;;;23.06;30.27;100216.19;104403;1271;72718;-55
2024/04/20 08:39:39;;;;;;;1.40;0.90;;;;;;;23.15;29.78;100215.55;104529;1269;62867;-55
2024/04/20 08:42:26;;;;;;;4.40;1.30;;;;;;;23.04;29.80;100231.08;104308;1269;62976;-54
2024/04/20 08:44:56;;;;;;;3.20;1.00;;;;;;;22.65;30.13;100234.31;104434;1274;76152;-54
2024/04/20 08:47:23;;;;;;;2.70;1.20;;;;;;;22.31;30.65;100234.34;104508;1269;69293;-54
2024/04/20 08:49:51;;;;;;;1.90;1.10;;;;;;;22.14;31.49;100221.63;104436;1270;75576;-54
2024/04/20 08:52:19;;;;;;;3.70;1.30;;;;;;;22.12;32.13;100216.09;104486;1269;62927;-56
2024/04/20 08:54:47;;;;;;;1.60;0.90;;;;;;;22.29;32.13;100218.30;104323;1270;62952;-56
2024/04/20 08:57:15;;;;;;;2.40;1.10;;;;;;;22.44;31.65;100214.51;104392;1269;76339;-55
2024/04/20 08:59:43;;;;;;;2.70;1.10;;;;;;;22.41;32.00;100205.15;105384;1261;69410;-55
2024/04/20 09:02:18;;;;;;;2.80;1.30;;;;;;;22.45;32.40;100201.49;105355;1262;75143;-60
2024/04/20 09:04:45;;;;;;;4.60;1.20;;;;;;;22.44;32.05;100197.66;105181;1253;62330;-56
2024/04/20 09:07:13;;;;;;;4.50;1.30;;;;;;;22.42;32.90;100193.46;105583;1253;62965;-56
2024/04/20 09:09:41;;;;;;;2.50;1.20;;;;;;;22.67;32.97;100185.90;105368;1259;76802;-55
2024/04/20 09:12:09;;;;;;;2.70;1.10;;;;;;;23.09;32.40;100183.80;105451;1260;68899;-54
2024/04/20 09:14:37;;;;;;;3.30;1.30;;;;;;;23.39;31.59;100183.69;105320;1259;75521;-56
2024/04/20 09:17:04;;;;;;;3.50;1.30;;;;;;;23.53;31.36;100178.08;105265;1256;61547;-55
2024/04/20 09:19:32;;;;;;;4.60;1.10;;;;;;;23.49;31.47;100176.70;105376;1259;61597;-54
2024/04/20 09:22:10;;;;;;;2.50;1.20;;;;;;;23.37;31.21;100167.27;105625;1255;76722;-55
2024/04/20 09:24:37;;;;;;;3.40;1.00;;;;;;;23.18;31.18;100175.86;105424;1260;68293;-54
2024/04/20 09:27:09;;;;;;;2.20;0.90;;;;;;;22.97;31.33;100169.57;105453;1260;74589;-55
2024/04/20 09:29:39;;;;;;;2.60;1.30;;;;;;;22.99;32.01;100158.50;105436;1260;61660;-58
2024/04/20 09:32:08;;;;;;;2.60;1.00;;;;;;;23.19;31.97;100150.92;105527;1254;62704;-57
2024/04/20 09:34:41;;;;;;;4.40;1.10;;;;;;;23.42;31.46;100146.13;105382;1256;76766;-55
2024/04/20 09:37:08;;;;;;;6.60;1.20;;;;;;;23.58;31.21;100135.17;105315;1260;69826;-56
2024/04/20 09:39:36;;;;;;;3.30;1.00;;;;;;;23.59;30.49;100148.67;105121;1256;75639;-61
2024/04/20 09:42:04;;;;;;;4.00;1.40;;;;;;;23.39;30.41;100148.63;105129;1260;62353;-55
2024/04/20 09:44:33;;;;;;;2.20;1.10;;;;;;;23.28;31.21;100141.75;105409;1254;61459;-55
2024/04/20 09:47:01;;;;;;;2.20;0.90;;;;;;;23.37;30.94;100136.63;105631;1255;75347;-54
2024/04/20 09:49:29;;;;;;;3.10;1.00;;;;;;;23.38;30.26;100130.67;105513;1259;68382;-57
2024/04/20 09:52:11;;;;;;;3.20;1.10;;;;;;;23.16;30.56;100119.17;105504;1260;75557;-55
2024/04/20 09:54:52;;;;;;;1.60;1.00;;;;;;;23.01;31.24;100121.59;105643;1256;62399;-55
2024/04/20 09:57:23;;;;;;;;;;;;;;;22.91;30.97;100116.29;105422;1256;61155;-55
2024/04/20 09:59:51;;;;;;;3.80;1.10;;;;;;;22.76;30.90;100115.65;105399;1254;75764;-56
2024/04/20 10:02:19;;;;;;;4.90;1.30;;;;;;;22.62;31.25;100116.34;105473;1254;69815;-57
2024/04/20 10:04:47;;;;;;;1.70;0.90;;;;;;;22.53;31.94;100110.65;105410;1254;75142;-62
2024/04/20 10:07:15;;;;;;;3.60;1.20;;;;;;;22.47;31.73;100111.61;105184;1259;62909;-54
2024/04/20 10:09:43;;;;;;;3.20;1.10;;;;;;;22.33;31.80;100115.05;105286;1254;62992;-55
2024/04/20 10:12:12;;;;;;;4.10;1.20;;;;;;;22.12;32.22;100128.06;105391;1260;76772;-55
2024/04/20 10:14:40;;;;;;;2.60;0.90;;;;;;;21.81;32.41;100132.80;105670;1255;69875;-57
2024/04/20 10:17:08;;;;;;;2.50;1.00;;;;;;;21.55;32.95;100121.28;105504;1254;74577;-55
2024/04/20 10:19:40;;;;;;;2.00;0.80;;;;;;;21.49;33.80;100115.81;105168;1256;63038;-55
2024/04/20 10:22:07;;;;;;;5.10;1.00;;;;;;;21.53;33.39;100118.78;105429;1260;61886;-55
2024/04/20 10:24:35;;;;;;;2.00;1.10;;;;;;;21.50;32.65;100111.73;105566;1255;76815;-60
2024/04/20 10:27:03;;;;;;;3.50;1.00;;;;;;;21.25;32.67;100116.55;105067;1254;69364;-55
2024/04/20 10:29:33;;;;;;;2.30;1.00;;;;;;;21.01;33.11;100110.36;105273;1260;74176;-54
2024/04/20 10:32:05;;;;;;;2.00;0.90;;;;;;;20.91;33.27;100108.29;105337;1254;63250;-55
2024/04/20 10:34:33;;;;;;;2.80;1.10;;;;;;;20.92;33.72;100100.39;105548;1259;62710;-61
2024/04/20 10:37:02;;;;;;;2.50;1.20;;;;;;;21.14;34.53;100089.71;105016;1254;76167;-55
2024/04/20 10:39:30;;;;;;;3.60;1.10;;;;;;;21.52;34.62;100088.48;105312;1259;68951;-54
2024/04/20 10:42:07;;;;;;;6.70;1.40;;;;;;;21.88;33.89;100090.58;105245;1259;75579;-55
2024/04/20 10:44:35;;;;;;;3.50;1.30;;;;;;;22.05;32.56;100081.79;105217;1260;62795;-55
2024/04/20 10:47:03;;;;;;;4.70;1.30;;;;;;;22.15;32.29;100082.84;105381;1257;62548;-56
2024/04/20 10:49:31;;;;;;;2.80;1.40;;;;;;;22.20;32.37;100086.25;105322;1254;76827;-54
2024/04/20 10:51:59;;;;;;;3.00;1.30;;;;;;;22.12;31.97;100091.27;105677;1254;69859;-55
2024/04/20 10:54:27;;;;;;;2.90;1.20;;;;;;;21.91;32.20;100095.14;105335;1254;74913;-55
2024/04/20 10:56:55;;;;;;;2.30;1.40;;;;;;;21.77;33.13;100091.92;105595;1259;62904;-55
2024/04/20 10:59:23;;;;;;;2.70;1.20;;;;;;;21.71;32.89;100083.63;105580;1254;62553;-55
2024/04/20 11:01:50;;;;;;;3.30;0.80;;;;;;;21.56;33.18;100084.95;105091;1260;76806;-56
2024/04/20 11:04:22;;;;;;;1.60;0.80;;;;;;;21.37;33.35;100087.16;105045;1261;69868;-56
2024/04/20 11:06:54;;;;;;;5.10;1.10;;;;;;;21.18;33.80;100083.15;105276;1257;75635;-56
2024/04/20 11:09:23;;;;;;;3.70;0.90;;;;;;;21.03;33.88;100081.45;105219;1259;63278;-56
2024/04/20 11:12:00;;;;;;;1.90;0.70;;;;;;;20.83;33.76;100072.89;105222;1256;63023;-61
2024/04/20 11:14:29;;;;;;;2.00;0.70;;;;;;;20.55;34.56;100069.30;105201;1256;75672;-55
2024/04/20 11:17:01;;;;;;;4.10;1.00;;;;;;;20.38;34.97;100061.25;105448;1256;68436;-56
2024/04/20 11:19:31;;;;;;;3.30;1.00;;;;;;;20.42;35.92;100055.13;105286;1256;75649;-55
2024/04/20 11:21:59;;;;;;;1.60;0.90;;;;;;;20.67;35.82;100042.43;105183;1261;61720;-55
2024/04/20 11:24:28;;;;;;;3.50;1.00;;;;;;;20.90;35.17;100029.42;105287;1255;63191;-55
2024/04/20 11:27:05;;;;;;;4.60;1.40;;;;;;;20.89;35.26;100027.02;105530;1254;75097;-55
2024/04/20 11:29:32;;;;;;;3.50;1.10;;;;;;;21.00;34.94;100020.83;105623;1254;68012;-61
2024/04/20 11:32:03;;;;;;;4.00;1.20;;;;;;;20.94;35.22;100019.42;105206;1260;75669;-55
2024/04/20 11:34:31;;;;;;;1.80;0.80;;;;;;;20.94;35.01;100016.30;105657;1254;63120;-57
2024/04/20 11:37:00;;;;;;;3.00;1.10;;;;;;;20.94;35.25;100014.66;105614;1256;63035;-57
2024/04/20 11:39:29;;;;;;;2.60;0.90;;;;;;;21.05;35.13;100013.66;105608;1258;76724;-58
2024/04/20 11:42:05;;;;;;;3.40;1.10;;;;;;;21.15;35.09;100013.16;105511;1255;68600;-56
2024/04/20 11:44:38;;;;;;;5.60;1.20;;;;;;;21.37;35.23;100010.09;105571;1255;75693;-55
2024/04/20 11:47:16;;;;;;;3.10;1.30;;;;;;;21.53;33.97;100005.06;105178;1254;62608;-56
2024/04/20 11:49:51;;;;;;;4.20;1.30;;;;;;;21.54;34.35;100004.48;105417;1254;62961;-55
2024/04/20 11:55:12;;;;;;;4.20;1.20;;;;;;;21.62;33.91;100003.44;105171;1254;69986;-55
2024/04/20 11:57:41;;;;;;;3.50;1.10;;;;;;;21.52;34.06;99996.36;105289;1254;75665;-56